createdAt,value
2023-04-21T01:41:36.926Z,19.20
2023-04-21T01:44:07.819Z,19.67
2023-04-21T01:46:38.744Z,20.07
2023-04-21T01:49:09.013Z,20.67
2023-04-21T01:51:39.259Z,19.80
2023-04-21T01:54:09.704Z,20.80
2023-04-21T01:56:50.148Z,20.70
2023-04-21T01:59:21.684Z,21.10
2023-04-21T02:01:52.049Z,21.27
2023-04-21T02:04:22.395Z,19.93
2023-04-21T02:06:52.721Z,20.90
2023-04-21T02:09:22.924Z,21.87
2023-04-21T02:11:58.820Z,21.53
2023-04-21T02:14:36.700Z,20.97
2023-04-21T02:17:07.189Z,21.70
2023-04-21T02:19:37.854Z,20.73
2023-04-21T02:22:08.548Z,21.10
2023-04-21T02:24:38.716Z,20.57
2023-04-21T02:27:11.532Z,21.23
2023-04-21T02:29:41.725Z,21.03
2023-04-21T02:32:22.357Z,21.77
2023-04-21T02:34:55.611Z,21.53
2023-04-21T02:37:26.891Z,21.83
2023-04-21T02:39:57.051Z,22.00
2023-04-21T02:42:29.850Z,23.17
2023-04-21T02:45:00.067Z,24.13
2023-04-21T02:47:30.396Z,22.93
2023-04-21T02:50:00.679Z,23.03
2023-04-21T02:52:30.918Z,22.50
2023-04-21T02:55:01.121Z,22.53
2023-04-21T02:57:37.909Z,23.47
2023-04-21T03:00:12.654Z,22.77
2023-04-21T03:02:43.035Z,23.97
2023-04-21T03:05:14.041Z,22.87
2023-04-21T03:07:45.462Z,23.30
2023-04-21T03:10:15.880Z,23.23
2023-04-21T03:12:48.857Z,22.97
2023-04-21T03:15:19.691Z,23.30
2023-04-21T03:17:51.000Z,24.00
2023-04-21T03:20:22.710Z,25.80
2023-04-21T03:22:52.914Z,23.43
2023-04-21T03:25:23.449Z,25.30
2023-04-21T03:27:56.291Z,24.67
2023-04-21T03:30:27.815Z,24.80
2023-04-21T03:32:58.974Z,25.57
2023-04-21T03:35:29.461Z,24.97
2023-04-21T03:38:03.835Z,24.20
2023-04-21T03:40:34.530Z,25.57
2023-04-21T03:43:07.366Z,26.20
2023-04-21T03:45:38.935Z,26.20
2023-04-21T03:48:09.729Z,26.20
2023-04-21T03:50:41.199Z,30.13
2023-04-21T03:53:11.386Z,26.30
2023-04-21T03:55:41.585Z,28.03
2023-04-21T03:58:14.497Z,29.80
2023-04-21T04:00:44.722Z,25.97
2023-04-21T04:03:15.113Z,25.43
2023-04-21T04:05:45.539Z,31.57
2023-04-21T04:47:00.494Z,22.97
2023-04-21T12:55:24.416Z,4.60
2023-04-21T12:57:57.468Z,5.70
2023-04-21T13:00:28.587Z,5.32
2023-04-21T13:02:58.944Z,4.95
2023-04-21T13:05:29.323Z,5.60
2023-04-21T13:07:59.585Z,5.55
2023-04-21T13:10:29.851Z,5.70
2023-04-21T13:13:02.694Z,5.28
2023-04-21T13:15:32.899Z,4.45
2023-04-21T13:18:03.157Z,4.15
2023-04-21T13:20:33.430Z,3.50
2023-04-21T13:23:03.704Z,3.13
2023-04-21T13:25:35.870Z,3.30
2023-04-21T13:28:09.588Z,3.15
2023-04-21T13:30:39.885Z,3.63
2023-04-21T13:33:11.933Z,3.97
2023-04-21T13:35:42.275Z,4.15
2023-04-21T13:38:12.527Z,3.97
2023-04-21T13:40:43.742Z,3.85
2023-04-21T13:43:18.131Z,4.07
2023-04-21T13:45:50.056Z,4.70
2023-04-21T13:48:20.467Z,4.25
2023-04-21T13:50:50.826Z,4.60
2023-04-21T13:53:22.147Z,4.18
2023-04-21T13:55:53.045Z,4.03
2023-04-21T13:58:26.049Z,4.18
2023-04-21T14:00:56.263Z,3.53
2023-04-21T14:03:26.603Z,3.95
2023-04-21T14:05:58.044Z,4.28
2023-04-21T14:08:28.637Z,4.43
2023-04-21T14:10:59.506Z,4.35
2023-04-21T14:13:40.161Z,4.43
2023-04-21T14:16:18.454Z,4.00
2023-04-21T14:18:48.705Z,4.10
2023-04-21T14:21:18.855Z,4.50
2023-04-21T14:23:49.130Z,4.22
2023-04-21T14:26:19.382Z,5.25
2023-04-21T14:28:53.004Z,4.35
2023-04-21T14:31:23.279Z,4.35
2023-04-21T14:33:53.589Z,4.03
2023-04-21T14:36:23.941Z,4.43
2023-04-21T14:38:54.297Z,4.60
2023-04-21T14:41:24.574Z,4.80
2023-04-21T14:43:59.334Z,5.43
2023-04-21T14:46:30.074Z,5.60
2023-04-21T14:49:00.467Z,5.15
2023-04-21T14:51:32.093Z,5.38
2023-04-21T14:54:02.329Z,6.45
2023-04-21T14:56:32.763Z,5.88
2023-04-21T14:59:05.621Z,5.88
2023-04-21T15:01:36.017Z,6.38
2023-04-21T15:04:06.700Z,6.20
2023-04-21T15:06:37.143Z,5.65
2023-04-21T21:48:23.949Z,5.97
2023-04-21T21:50:54.234Z,6.13
2023-04-21T21:53:24.431Z,6.40
2023-04-21T21:55:54.624Z,6.63
2023-04-21T21:58:24.970Z,6.70
2023-04-21T22:00:55.235Z,7.50
2023-04-21T22:03:32.618Z,7.40
2023-04-21T22:06:03.637Z,6.60
2023-04-21T22:08:33.872Z,7.27
2023-04-21T22:11:05.995Z,7.30
2023-04-21T22:13:36.365Z,7.23
2023-04-21T22:16:07.150Z,6.30
2023-04-21T22:18:40.128Z,5.47
2023-04-21T22:21:10.412Z,4.93
2023-04-21T22:23:40.668Z,5.13
2023-04-21T22:26:13.985Z,5.27
2023-04-21T22:28:44.165Z,6.20
2023-04-21T22:31:14.445Z,5.80
2023-04-21T22:33:47.244Z,5.73
2023-04-21T22:36:17.490Z,5.40
2023-04-21T22:38:47.672Z,4.47
2023-04-21T22:41:18.019Z,4.80
2023-04-21T22:43:48.221Z,4.53
2023-04-21T22:46:18.713Z,4.10
2023-04-21T22:48:54.614Z,4.57
2023-04-21T22:51:24.798Z,4.27
2023-04-21T22:53:54.966Z,4.07
2023-04-21T22:56:25.233Z,4.17
2023-04-21T22:58:55.940Z,3.77
2023-04-21T23:01:26.452Z,3.70
2023-04-21T23:03:59.479Z,3.13
2023-04-21T23:06:29.821Z,2.90
2023-04-21T23:09:00.036Z,3.37
2023-04-21T23:11:30.284Z,3.70
2023-04-21T23:14:02.129Z,3.60
2023-04-21T23:16:32.489Z,4.03
2023-04-21T23:19:05.381Z,3.83
2023-04-21T23:21:39.209Z,3.70
2023-04-21T23:24:10.180Z,4.10
2023-04-21T23:26:44.244Z,3.70
2023-04-21T23:29:14.427Z,3.40
2023-04-21T23:31:44.873Z,3.60
2023-04-21T23:34:18.031Z,3.33
2023-04-21T23:36:48.268Z,4.23
2023-04-21T23:39:18.470Z,3.57
2023-04-21T23:41:48.657Z,4.40
2023-04-21T23:44:20.157Z,4.00
2023-04-21T23:46:50.323Z,4.00
2023-04-21T23:49:27.918Z,4.20
2023-04-21T23:51:59.587Z,4.10
2023-04-21T23:54:29.891Z,4.23
2023-04-21T23:57:00.146Z,3.80
